Time;durP1;ratioP1;P1;durP2;ratioP2;P2;SDS_P1;SDS_P2;PMS_P1;PMS_P2;Temp;Humidity;BMP_temperature;BMP_pressure;BME280_temperature;BME280_humidity;BME280_pressure;Samples;Min_cycle;Max_cycle;Signal;HPM_P1;HPM_P2
2022/07/07 00:01:48;;;;;;;;;;;30.50;49.10;;;;;;5090669;28;20347;-73
2022/07/07 00:04:14;;;;;;;;;;;30.40;49.00;;;;;;5091041;28;20003;-73
2022/07/07 00:06:39;;;;;;;;;;;30.40;49.40;;;;;;5090731;28;19915;-73
2022/07/07 00:09:05;;;;;;;;;;;30.30;49.80;;;;;;5091102;28;19998;-73
2022/07/07 00:11:31;;;;;;;;;;;30.20;50.00;;;;;;5091929;28;19924;-73
2022/07/07 00:13:57;;;;;;;;;;;30.20;50.40;;;;;;5092311;28;19904;-73
2022/07/07 00:16:23;;;;;;;;;;;30.10;50.50;;;;;;5090843;28;20363;-73
2022/07/07 00:18:49;;;;;;;;;;;30.00;50.80;;;;;;5090563;28;19904;-72
2022/07/07 00:21:15;;;;;;;;;;;29.80;50.80;;;;;;5090571;28;19912;-73
2022/07/07 00:23:41;;;;;;;;;;;29.80;50.90;;;;;;5090582;28;19912;-73
2022/07/07 00:26:07;;;;;;;;;;;29.80;51.10;;;;;;5090507;28;19908;-74
2022/07/07 00:28:33;;;;;;;;;;;29.80;51.20;;;;;;5090742;28;19904;-73
2022/07/07 00:30:59;;;;;;;;;;;29.80;51.50;;;;;;5092585;28;19946;-73
2022/07/07 00:33:25;;;;;;;;;;;29.80;51.70;;;;;;5090453;28;19947;-73
2022/07/07 00:35:51;;;;;;;;;;;29.70;51.80;;;;;;5092184;28;19911;-73
2022/07/07 00:38:17;;;;;;;;;;;29.80;52.10;;;;;;5093610;28;19912;-73
2022/07/07 00:40:43;;;;;;;;;;;29.70;52.40;;;;;;5095952;28;19987;-73
2022/07/07 00:43:09;;;;;;;;;;;29.70;53.20;;;;;;5095788;28;19904;-73
2022/07/07 00:45:35;;;;;;;;;;;29.70;52.60;;;;;;5096259;28;19904;-73
2022/07/07 00:48:01;;;;;;;;;;;29.70;52.70;;;;;;5094453;28;19908;-73
2022/07/07 00:50:26;;;;;;;;;;;29.60;52.80;;;;;;5095724;28;19908;-73
2022/07/07 00:52:53;;;;;;;;;;;29.50;53.10;;;;;;5095910;28;19907;-73
2022/07/07 00:55:19;;;;;;;;;;;29.50;53.30;;;;;;5096150;28;19957;-72
2022/07/07 00:57:45;;;;;;;;;;;29.50;53.20;;;;;;5095434;28;19904;-73
2022/07/07 01:00:12;;;;;;;;;;;29.50;52.90;;;;;;5093811;28;19908;-73
2022/07/07 01:02:38;;;;;;;;;;;29.50;52.70;;;;;;5095406;28;19915;-73
2022/07/07 01:05:06;;;;;;;;;;;29.50;52.40;;;;;;5095831;28;19904;-74
2022/07/07 01:07:32;;;;;;;;;;;29.50;52.10;;;;;;5094083;28;19916;-74
2022/07/07 01:09:59;;;;;;;;;;;29.60;51.70;;;;;;5095271;28;19930;-74
2022/07/07 01:12:25;;;;;;;;;;;29.60;51.70;;;;;;5093668;28;20330;-72
2022/07/07 01:14:51;;;;;;;;;;;29.60;51.50;;;;;;5095324;28;19957;-73
2022/07/07 01:17:17;;;;;;;;;;;29.70;51.20;;;;;;5093698;28;19908;-74
2022/07/07 01:19:43;;;;;;;;;;;29.70;50.90;;;;;;5095069;28;20301;-72
2022/07/07 01:22:13;;;;;;;;;;;29.70;50.90;;;;;;5094980;28;19980;-72
2022/07/07 01:24:39;;;;;;;;;;;29.70;50.90;;;;;;5095170;28;19904;-73
2022/07/07 01:27:07;;;;;;;;;;;29.60;50.60;;;;;;5094855;28;20190;-73
2022/07/07 01:29:37;;;;;;;;;;;29.80;49.90;;;;;;5093577;28;19944;-73
2022/07/07 01:32:04;;;;;;;;;;;29.90;49.50;;;;;;5094990;28;19911;-73
2022/07/07 01:34:30;;;;;;;;;;;30.00;49.70;;;;;;5094703;28;19904;-74
2022/07/07 01:36:56;;;;;;;;;;;30.00;49.60;;;;;;5095018;28;19904;-73
2022/07/07 01:39:22;;;;;;;;;;;30.00;49.90;;;;;;5094572;28;19904;-73
2022/07/07 01:41:48;;;;;;;;;;;30.00;50.10;;;;;;5092934;28;19919;-73
2022/07/07 01:44:13;;;;;;;;;;;29.90;50.30;;;;;;5094535;28;19904;-74
2022/07/07 01:46:39;;;;;;;;;;;29.70;50.70;;;;;;5093514;28;20344;-73
2022/07/07 01:49:05;;;;;;;;;;;29.60;51.20;;;;;;5092309;28;19999;-74
2022/07/07 01:51:31;;;;;;;;;;;29.50;51.50;;;;;;5093233;28;19998;-72
2022/07/07 01:53:57;;;;;;;;;;;29.40;51.60;;;;;;5094481;28;19908;-72
2022/07/07 01:56:22;;;;;;;;;;;29.30;51.60;;;;;;5092895;28;19926;-73
2022/07/07 01:58:48;;;;;;;;;;;29.40;51.50;;;;;;5094467;28;19904;-73
2022/07/07 02:01:14;;;;;;;;;;;29.40;51.60;;;;;;5094201;28;19960;-74
2022/07/07 02:03:40;;;;;;;;;;;29.40;51.90;;;;;;5092975;28;20266;-73
2022/07/07 02:06:09;;;;;;;;;;;29.30;52.30;;;;;;5094476;28;19915;-75
2022/07/07 02:08:35;;;;;;;;;;;29.30;53.10;;;;;;5094056;28;19976;-73
2022/07/07 02:11:13;;;;;;;;;;;29.20;53.40;;;;;;5092070;28;19912;-74
2022/07/07 02:13:40;;;;;;;;;;;29.20;53.30;;;;;;5094495;28;19998;-73
2022/07/07 02:16:06;;;;;;;;;;;29.20;54.10;;;;;;5093723;28;19903;-73
2022/07/07 02:18:36;;;;;;;;;;;29.20;53.80;;;;;;5094022;28;20045;-73
2022/07/07 02:21:03;;;;;;;;;;;29.20;54.00;;;;;;5093644;28;19911;-73
2022/07/07 02:23:29;;;;;;;;;;;29.20;53.80;;;;;;5093816;28;19998;-73
2022/07/07 02:25:54;;;;;;;;;;;29.20;53.80;;;;;;5093560;28;20016;-73
2022/07/07 02:28:22;;;;;;;;;;;29.20;53.70;;;;;;5092197;28;20375;-73
2022/07/07 02:30:48;;;;;;;;;;;29.30;53.60;;;;;;5091952;28;19904;-74
2022/07/07 02:33:14;;;;;;;;;;;29.30;53.80;;;;;;5094070;28;20247;-74
2022/07/07 02:35:40;;;;;;;;;;;29.20;54.10;;;;;;5093698;28;19908;-73
2022/07/07 02:38:05;;;;;;;;;;;29.30;54.00;;;;;;5093282;28;20275;-73
2022/07/07 02:40:31;;;;;;;;;;;29.20;54.00;;;;;;5093598;28;20339;-74
2022/07/07 02:42:57;;;;;;;;;;;29.30;53.50;;;;;;5091734;28;19947;-74
2022/07/07 02:45:23;;;;;;;;;;;29.30;53.70;;;;;;5093631;28;19976;-73
2022/07/07 02:47:49;;;;;;;;;;;29.20;54.10;;;;;;5092820;28;19914;-73
2022/07/07 02:50:15;;;;;;;;;;;29.10;54.50;;;;;;5091478;28;19904;-74
2022/07/07 02:52:40;;;;;;;;;;;29.10;55.10;;;;;;5093353;28;20383;-74
2022/07/07 02:55:06;;;;;;;;;;;29.00;54.90;;;;;;5092029;28;19950;-74
2022/07/07 02:57:32;;;;;;;;;;;29.00;55.00;;;;;;5093459;28;19949;-73
2022/07/07 02:59:58;;;;;;;;;;;28.90;55.50;;;;;;5093103;28;20227;-73
2022/07/07 03:02:24;;;;;;;;;;;28.90;56.00;;;;;;5090848;28;20356;-73
2022/07/07 03:04:50;;;;;;;;;;;28.90;56.50;;;;;;5091536;28;19911;-74
2022/07/07 03:07:16;;;;;;;;;;;28.90;56.10;;;;;;5092948;28;19903;-73
2022/07/07 03:09:42;;;;;;;;;;;28.80;56.60;;;;;;5091486;28;19904;-74
2022/07/07 03:12:07;;;;;;;;;;;28.80;56.90;;;;;;5092470;28;19920;-74
2022/07/07 03:14:33;;;;;;;;;;;28.70;56.90;;;;;;5091463;28;19904;-74
2022/07/07 03:16:59;;;;;;;;;;;28.60;56.90;;;;;;5092906;28;19908;-73
2022/07/07 03:19:25;;;;;;;;;;;28.60;57.20;;;;;;5093031;28;19904;-74
2022/07/07 03:21:51;;;;;;;;;;;28.40;57.50;;;;;;5091280;28;19931;-73
2022/07/07 03:24:16;;;;;;;;;;;28.50;57.90;;;;;;5092585;28;19920;-74
2022/07/07 03:26:42;;;;;;;;;;;28.50;57.90;;;;;;5093433;28;20002;-74
2022/07/07 03:29:08;;;;;;;;;;;28.40;57.90;;;;;;5093241;28;19956;-73
2022/07/07 03:31:34;;;;;;;;;;;28.50;57.70;;;;;;5093076;28;19904;-73
2022/07/07 03:34:00;;;;;;;;;;;28.40;61.30;;;;;;5092143;28;20053;-73
2022/07/07 03:36:25;;;;;;;;;;;28.40;65.50;;;;;;5092428;28;19904;-73
2022/07/07 03:38:51;;;;;;;;;;;28.40;67.70;;;;;;5091941;28;20381;-74
2022/07/07 03:41:17;;;;;;;;;;;28.40;68.20;;;;;;5092058;28;19916;-72
2022/07/07 03:43:43;;;;;;;;;;;28.40;69.30;;;;;;5092220;28;19911;-74
2022/07/07 03:46:09;;;;;;;;;;;28.40;71.90;;;;;;5092372;28;20324;-73
2022/07/07 03:48:34;;;;;;;;;;;28.30;72.50;;;;;;5092479;28;19904;-73
2022/07/07 03:51:00;;;;;;;;;;;28.30;72.40;;;;;;5091678;28;20221;-73
2022/07/07 03:53:26;;;;;;;;;;;28.30;72.40;;;;;;5092079;28;20359;-73
2022/07/07 03:55:52;;;;;;;;;;;28.30;73.10;;;;;;5091711;28;20263;-72
2022/07/07 03:58:18;;;;;;;;;;;28.40;72.50;;;;;;5091876;28;20324;-73
2022/07/07 04:00:44;;;;;;;;;;;28.40;72.40;;;;;;5091491;28;19954;-74
2022/07/07 04:03:09;;;;;;;;;;;28.40;72.20;;;;;;5091864;28;19994;-72
2022/07/07 04:05:36;;;;;;;;;;;28.40;71.70;;;;;;5091490;28;19974;-72
2022/07/07 04:08:02;;;;;;;;;;;28.40;71.00;;;;;;5089960;28;19976;-73
2022/07/07 04:10:27;;;;;;;;;;;28.50;70.20;;;;;;5091255;28;20312;-72
2022/07/07 04:12:54;;;;;;;;;;;28.60;70.10;;;;;;5092100;28;19908;-74
2022/07/07 04:15:20;;;;;;;;;;;28.70;70.00;;;;;;5090767;28;19904;-73
2022/07/07 04:17:46;;;;;;;;;;;28.80;69.40;;;;;;5092200;28;19961;-73
2022/07/07 04:20:12;;;;;;;;;;;28.90;69.60;;;;;;5091719;28;20328;-73
2022/07/07 04:22:38;;;;;;;;;;;28.90;70.10;;;;;;5093210;28;19916;-73
2022/07/07 04:25:04;;;;;;;;;;;29.00;69.90;;;;;;5093182;28;20409;-73
2022/07/07 04:27:30;;;;;;;;;;;29.10;67.90;;;;;;5093305;28;19911;-73
2022/07/07 04:29:55;;;;;;;;;;;29.20;64.10;;;;;;5093515;28;19998;-73
2022/07/07 04:32:21;;;;;;;;;;;29.20;60.50;;;;;;5092792;28;19934;-74
2022/07/07 04:34:47;;;;;;;;;;;29.20;59.90;;;;;;5091425;28;19915;-72
2022/07/07 04:37:13;;;;;;;;;;;29.40;59.70;;;;;;5091660;28;19948;-73
2022/07/07 04:39:39;;;;;;;;;;;29.50;59.20;;;;;;5093307;28;20300;-73
2022/07/07 04:42:05;;;;;;;;;;;29.70;59.30;;;;;;5091465;28;19919;-72
2022/07/07 04:44:30;;;;;;;;;;;29.70;58.90;;;;;;5092823;28;19915;-72
2022/07/07 04:46:56;;;;;;;;;;;29.70;58.90;;;;;;5092855;28;19904;-73
2022/07/07 04:49:22;;;;;;;;;;;29.80;58.50;;;;;;5092718;28;19908;-72
2022/07/07 04:51:48;;;;;;;;;;;29.60;57.60;;;;;;5092655;28;19908;-73
2022/07/07 04:54:14;;;;;;;;;;;29.60;56.90;;;;;;5092627;28;19904;-73
2022/07/07 04:56:40;;;;;;;;;;;29.60;56.50;;;;;;5092904;28;19969;-73
2022/07/07 04:59:06;;;;;;;;;;;29.50;56.30;;;;;;5092893;28;20260;-73
2022/07/07 05:01:32;;;;;;;;;;;29.50;56.30;;;;;;5092931;28;19912;-72
2022/07/07 05:03:58;;;;;;;;;;;29.50;56.80;;;;;;5092555;28;19954;-73
2022/07/07 05:06:24;;;;;;;;;;;29.60;56.30;;;;;;5091123;28;20003;-72
2022/07/07 05:08:49;;;;;;;;;;;30.00;55.80;;;;;;5093023;28;19904;-73
2022/07/07 05:11:15;;;;;;;;;;;30.70;55.00;;;;;;5092236;28;19931;-73
2022/07/07 05:13:41;;;;;;;;;;;31.70;53.70;;;;;;5091107;28;19991;-73
2022/07/07 05:16:07;;;;;;;;;;;32.90;52.30;;;;;;5092356;28;20356;-74
2022/07/07 05:18:33;;;;;;;;;;;33.70;50.90;;;;;;5092097;28;19904;-73
2022/07/07 05:20:59;;;;;;;;;;;33.70;50.50;;;;;;5092208;28;19908;-73
2022/07/07 05:23:27;;;;;;;;;;;33.90;50.40;;;;;;5092249;28;19976;-73
2022/07/07 05:25:54;;;;;;;;;;;34.00;50.20;;;;;;5095424;28;19983;-73
2022/07/07 05:28:21;;;;;;;;;;;34.10;49.70;;;;;;5095867;28;19961;-73
2022/07/07 05:30:46;;;;;;;;;;;34.40;49.30;;;;;;5095615;28;19904;-73
2022/07/07 05:33:12;;;;;;;;;;;35.30;47.90;;;;;;5095927;28;19946;-73
2022/07/07 05:35:38;;;;;;;;;;;35.30;46.70;;;;;;5095540;28;19949;-73
2022/07/07 05:38:04;;;;;;;;;;;35.50;46.40;;;;;;5095868;28;19904;-73
2022/07/07 05:40:30;;;;;;;;;;;36.20;46.00;;;;;;5095263;28;20053;-74
2022/07/07 05:42:56;;;;;;;;;;;37.60;45.60;;;;;;5094168;28;19904;-74
2022/07/07 05:45:21;;;;;;;;;;;38.90;54.20;;;;;;5093861;28;19915;-73
2022/07/07 05:47:47;;;;;;;;;;;39.90;54.70;;;;;;5095160;28;19931;-74
2022/07/07 05:50:13;;;;;;;;;;;40.90;52.60;;;;;;5095177;28;19951;-74
2022/07/07 05:52:39;;;;;;;;;;;41.60;51.90;;;;;;5095274;28;19904;-74
2022/07/07 05:55:07;;;;;;;;;;;42.00;49.50;;;;;;5093531;28;19904;-73
2022/07/07 05:57:32;;;;;;;;;;;40.90;43.80;;;;;;5095051;28;20006;-74
2022/07/07 05:59:58;;;;;;;;;;;40.70;41.50;;;;;;5093510;28;19955;-74
2022/07/07 06:02:24;;;;;;;;;;;41.40;41.30;;;;;;5094668;28;20024;-74
2022/07/07 06:04:50;;;;;;;;;;;42.50;50.10;;;;;;5094886;28;19908;-74
2022/07/07 06:07:16;;;;;;;;;;;43.40;44.10;;;;;;5095557;28;19904;-74
2022/07/07 06:09:42;;;;;;;;;;;43.70;39.90;;;;;;5093623;28;19915;-74
2022/07/07 06:12:08;;;;;;;;;;;43.60;38.70;;;;;;5094692;28;20425;-73
2022/07/07 06:14:34;;;;;;;;;;;42.90;39.30;;;;;;5095429;28;19916;-74
2022/07/07 06:17:00;;;;;;;;;;;42.90;38.50;;;;;;5094600;28;19917;-73
2022/07/07 06:19:26;;;;;;;;;;;42.10;38.90;;;;;;5094863;28;19904;-73
2022/07/07 06:21:52;;;;;;;;;;;41.20;40.20;;;;;;5095075;28;20275;-73
2022/07/07 06:24:18;;;;;;;;;;;41.10;40.70;;;;;;5095397;28;19908;-72
2022/07/07 06:26:43;;;;;;;;;;;42.30;40.00;;;;;;5095230;28;19998;-73
2022/07/07 06:29:09;;;;;;;;;;;43.30;38.60;;;;;;5094885;28;19904;-73
2022/07/07 06:31:36;;;;;;;;;;;43.90;37.70;;;;;;5095131;28;19911;-73
2022/07/07 06:34:02;;;;;;;;;;;44.40;37.70;;;;;;5094720;28;19921;-74
2022/07/07 06:36:28;;;;;;;;;;;45.10;37.20;;;;;;5094802;28;19954;-73
2022/07/07 06:38:54;;;;;;;;;;;45.80;36.80;;;;;;5094754;28;19920;-74
2022/07/07 06:41:23;;;;;;;;;;;46.60;35.80;;;;;;5093387;28;19934;-73
2022/07/07 06:43:49;;;;;;;;;;;47.40;34.70;;;;;;5094632;28;19904;-73
2022/07/07 06:46:15;;;;;;;;;;;47.90;37.20;;;;;;5094225;28;19957;-74
2022/07/07 06:48:41;;;;;;;;;;;48.80;42.70;;;;;;5094609;28;19976;-73
2022/07/07 06:51:07;;;;;;;;;;;48.80;43.00;;;;;;5095029;28;19908;-74
2022/07/07 06:53:33;;;;;;;;;;;49.30;42.50;;;;;;5094399;28;20228;-74
2022/07/07 06:55:58;;;;;;;;;;;49.40;38.60;;;;;;5094545;28;19904;-73
2022/07/07 06:58:24;;;;;;;;;;;49.30;39.60;;;;;;5094360;28;20395;-73
2022/07/07 07:00:50;;;;;;;;;;;49.50;38.70;;;;;;5094343;28;19908;-73
2022/07/07 07:03:16;;;;;;;;;;;49.60;41.20;;;;;;5094222;28;20229;-73
2022/07/07 07:05:42;;;;;;;;;;;48.80;41.00;;;;;;5094227;28;19904;-73
2022/07/07 07:08:07;;;;;;;;;;;49.10;41.20;;;;;;5094177;28;19908;-73
2022/07/07 07:10:33;;;;;;;;;;;49.40;41.30;;;;;;5094120;28;20431;-73
2022/07/07 07:12:59;;;;;;;;;;;48.50;41.40;;;;;;5092641;28;19965;-74
2022/07/07 07:15:25;;;;;;;;;;;48.40;41.80;;;;;;5094004;28;20237;-74
2022/07/07 07:17:51;;;;;;;;;;;48.30;41.90;;;;;;5093905;28;19904;-74
2022/07/07 07:20:17;;;;;;;;;;;47.60;42.10;;;;;;5094277;28;20251;-74
2022/07/07 07:22:43;;;;;;;;;;;47.50;42.50;;;;;;5092526;28;19908;-74
2022/07/07 07:25:09;;;;;;;;;;;47.00;42.30;;;;;;5094256;28;19904;-73
2022/07/07 07:27:35;;;;;;;;;;;46.30;43.20;;;;;;5093616;28;19904;-74
2022/07/07 07:30:01;;;;;;;;;;;45.90;43.50;;;;;;5093474;28;20228;-72
2022/07/07 07:32:27;;;;;;;;;;;45.20;44.10;;;;;;5092182;28;20267;-74
2022/07/07 07:34:53;;;;;;;;;;;44.10;43.70;;;;;;5093505;28;19903;-73
2022/07/07 07:37:18;;;;;;;;;;;43.40;44.30;;;;;;5093363;28;20041;-74
2022/07/07 07:39:44;;;;;;;;;;;42.80;44.60;;;;;;5093736;28;19911;-73
2022/07/07 07:42:10;;;;;;;;;;;42.20;45.60;;;;;;5093022;28;19912;-75
2022/07/07 07:47:20;;;;;;;;;;;41.60;46.90;;;;;;5092421;28;20371;-73
2022/07/07 07:49:45;;;;;;;;;;;41.50;48.30;;;;;;5093141;28;19904;-74
2022/07/07 07:52:11;;;;;;;;;;;41.50;48.60;;;;;;5092605;28;19938;-74
2022/07/07 07:54:37;;;;;;;;;;;41.60;49.10;;;;;;5092953;28;20578;-74
2022/07/07 07:57:03;;;;;;;;;;;41.30;49.60;;;;;;5092587;28;19907;-74
2022/07/07 07:59:29;;;;;;;;;;;40.70;50.40;;;;;;5091255;28;20313;-73
2022/07/07 08:01:55;;;;;;;;;;;40.30;50.60;;;;;;5090914;28;20301;-75
2022/07/07 08:04:21;;;;;;;;;;;39.90;51.20;;;;;;5092354;28;19977;-73
2022/07/07 08:06:46;;;;;;;;;;;40.00;51.70;;;;;;5092564;28;19950;-73
2022/07/07 08:09:12;;;;;;;;;;;40.20;51.90;;;;;;5092510;28;19904;-73
2022/07/07 08:11:38;;;;;;;;;;;40.40;51.30;;;;;;5090345;28;19924;-73
2022/07/07 08:14:04;;;;;;;;;;;40.20;51.30;;;;;;5092454;28;19951;-74
2022/07/07 08:16:30;;;;;;;;;;;40.10;51.10;;;;;;5092088;28;19961;-73
2022/07/07 08:18:56;;;;;;;;;;;40.10;51.50;;;;;;5092712;28;19904;-73
2022/07/07 08:21:22;;;;;;;;;;;39.90;51.40;;;;;;5092335;28;19958;-73
2022/07/07 08:23:48;;;;;;;;;;;39.70;51.40;;;;;;5091531;28;19907;-73
2022/07/07 08:26:14;;;;;;;;;;;39.70;52.10;;;;;;5092739;28;19904;-74
2022/07/07 08:28:40;;;;;;;;;;;39.90;51.90;;;;;;5091172;28;19912;-75
2022/07/07 08:31:09;;;;;;;;;;;40.00;52.00;;;;;;5093005;28;19932;-74
2022/07/07 08:33:35;;;;;;;;;;;39.70;51.50;;;;;;5092354;28;19904;-74
2022/07/07 08:36:01;;;;;;;;;;;39.40;52.10;;;;;;5092560;28;19911;-73
2022/07/07 08:38:26;;;;;;;;;;;39.60;52.00;;;;;;5092376;28;19955;-74
2022/07/07 08:40:52;;;;;;;;;;;39.80;51.50;;;;;;5092293;28;19915;-73
2022/07/07 08:43:19;;;;;;;;;;;39.90;50.70;;;;;;5092880;28;19908;-74
2022/07/07 08:45:46;;;;;;;;;;;39.90;50.50;;;;;;5092242;28;20291;-73
2022/07/07 08:48:12;;;;;;;;;;;39.90;50.30;;;;;;5092766;28;19908;-74
2022/07/07 08:50:38;;;;;;;;;;;40.00;50.00;;;;;;5092146;28;19953;-74
2022/07/07 08:53:04;;;;;;;;;;;40.10;49.20;;;;;;5091787;28;19936;-74
2022/07/07 08:55:31;;;;;;;;;;;39.30;49.30;;;;;;5090553;28;19946;-74
2022/07/07 08:57:57;;;;;;;;;;;39.60;48.90;;;;;;5091769;28;19908;-74
2022/07/07 09:00:22;;;;;;;;;;;39.10;44.80;;;;;;5094554;28;19946;-73
2022/07/07 09:02:49;;;;;;;;;;;38.90;46.90;;;;;;5095949;28;20379;-74
2022/07/07 09:05:16;;;;;;;;;;;38.90;48.00;;;;;;5095974;28;19911;-74
2022/07/07 09:07:46;;;;;;;;;;;39.10;47.90;;;;;;5095910;28;19904;-74
2022/07/07 09:10:12;;;;;;;;;;;39.30;46.70;;;;;;5095827;28;19904;-74
2022/07/07 09:12:40;;;;;;;;;;;38.30;47.20;;;;;;5095927;28;19915;-74
2022/07/07 09:15:10;;;;;;;;;;;38.50;48.80;;;;;;5095890;28;19904;-74
2022/07/07 09:17:36;;;;;;;;;;;38.60;48.30;;;;;;5095949;28;19911;-73
2022/07/07 09:20:06;;;;;;;;;;;38.30;49.30;;;;;;5095536;28;19904;-74
2022/07/07 09:22:52;;;;;;;;;;;38.20;48.80;;;;;;5094226;28;20264;-74
2022/07/07 09:25:20;;;;;;;;;;;38.30;48.90;;;;;;5096094;28;19999;-74
2022/07/07 09:27:49;;;;;;;;;;;37.80;49.60;;;;;;5095669;28;19911;-74
2022/07/07 09:30:35;;;;;;;;;;;38.10;50.60;;;;;;5095681;28;20262;-73
2022/07/07 09:33:05;;;;;;;;;;;38.30;50.70;;;;;;5094958;28;19907;-73
2022/07/07 09:38:22;;;;;;;;;;;38.20;50.50;;;;;;5095955;28;19957;-74
2022/07/07 09:40:49;;;;;;;;;;;38.00;50.10;;;;;;5095851;28;19916;-73
2022/07/07 09:43:15;;;;;;;;;;;37.70;50.80;;;;;;5095140;28;19988;-73
2022/07/07 09:45:41;;;;;;;;;;;37.60;50.20;;;;;;5095590;28;19957;-74
2022/07/07 09:48:08;;;;;;;;;;;37.50;50.40;;;;;;5094962;28;19904;-73
2022/07/07 09:50:34;;;;;;;;;;;37.70;50.80;;;;;;5094850;28;20221;-74
2022/07/07 09:53:05;;;;;;;;;;;37.50;50.30;;;;;;5094423;28;19910;-73
2022/07/07 09:55:31;;;;;;;;;;;37.70;50.30;;;;;;5095269;28;20002;-73
2022/07/07 09:57:57;;;;;;;;;;;37.60;50.80;;;;;;5094759;28;19954;-73
2022/07/07 10:00:23;;;;;;;;;;;37.70;50.10;;;;;;5095129;28;19904;-74
2022/07/07 10:02:50;;;;;;;;;;;37.70;49.90;;;;;;5094286;28;20002;-74
2022/07/07 10:05:19;;;;;;;;;;;37.80;49.70;;;;;;5094269;28;19904;-73
2022/07/07 10:07:47;;;;;;;;;;;37.70;49.80;;;;;;5094792;28;19951;-74
2022/07/07 10:10:13;;;;;;;;;;;37.90;49.60;;;;;;5094097;28;20255;-74
2022/07/07 10:12:45;;;;;;;;;;;38.00;50.00;;;;;;5094771;28;19908;-73
2022/07/07 10:15:12;;;;;;;;;;;38.10;49.90;;;;;;5093391;28;20420;-73
2022/07/07 10:17:38;;;;;;;;;;;38.00;49.60;;;;;;5094842;28;19997;-73
2022/07/07 10:20:05;;;;;;;;;;;38.10;49.70;;;;;;5095110;28;19912;-74
2022/07/07 10:22:31;;;;;;;;;;;38.40;49.80;;;;;;5095026;28;20011;-74
2022/07/07 10:24:58;;;;;;;;;;;38.50;48.70;;;;;;5095104;28;19911;-74
2022/07/07 10:27:26;;;;;;;;;;;38.40;49.10;;;;;;5094655;28;20397;-74
2022/07/07 10:29:56;;;;;;;;;;;38.40;49.20;;;;;;5094875;28;19947;-74
2022/07/07 10:32:29;;;;;;;;;;;38.00;50.00;;;;;;5093190;28;20271;-74
2022/07/07 10:34:56;;;;;;;;;;;37.50;50.80;;;;;;5094890;28;19904;-74
2022/07/07 10:37:23;;;;;;;;;;;37.40;50.70;;;;;;5094754;28;19904;-74
2022/07/07 10:39:51;;;;;;;;;;;37.30;50.60;;;;;;5094914;28;19908;-74
2022/07/07 10:42:17;;;;;;;;;;;37.10;50.90;;;;;;5094280;28;19912;-74
2022/07/07 10:44:44;;;;;;;;;;;37.20;51.30;;;;;;5094789;28;20026;-74
2022/07/07 10:47:13;;;;;;;;;;;37.20;52.20;;;;;;5093958;28;19911;-74
2022/07/07 10:49:40;;;;;;;;;;;37.50;53.00;;;;;;5094416;28;19931;-73
2022/07/07 10:52:12;;;;;;;;;;;37.80;53.10;;;;;;5094059;28;19904;-74
2022/07/07 10:54:40;;;;;;;;;;;38.10;52.20;;;;;;5093532;28;19937;-73
2022/07/07 10:57:06;;;;;;;;;;;37.90;52.40;;;;;;5093568;28;20041;-75
2022/07/07 10:59:51;;;;;;;;;;;38.30;51.50;;;;;;5093839;28;20374;-74
2022/07/07 11:02:29;;;;;;;;;;;38.20;51.00;;;;;;5093116;28;19995;-74
2022/07/07 11:04:54;;;;;;;;;;;37.80;52.30;;;;;;5093852;28;19904;-74
2022/07/07 11:07:22;;;;;;;;;;;37.80;49.10;;;;;;5093588;28;20352;-74
2022/07/07 11:10:09;;;;;;;;;;;37.40;50.80;;;;;;5093581;28;19953;-74
2022/07/07 11:12:52;;;;;;;;;;;37.40;50.70;;;;;;5052111;28;19916;-74
2022/07/07 11:15:21;;;;;;;;;;;37.30;52.80;;;;;;5053283;28;20036;-74
2022/07/07 11:17:48;;;;;;;;;;;37.50;53.70;;;;;;5052509;28;19904;-74
2022/07/07 11:20:17;;;;;;;;;;;37.60;55.20;;;;;;5053806;28;19905;-74
2022/07/07 11:22:47;;;;;;;;;;;37.70;54.70;;;;;;5053060;28;19909;-75
2022/07/07 11:25:13;;;;;;;;;;;37.30;56.20;;;;;;5053962;28;19911;-74
2022/07/07 11:27:39;;;;;;;;;;;37.00;57.70;;;;;;5053916;28;19920;-74
2022/07/07 11:30:05;;;;;;;;;;;37.10;56.10;;;;;;5053601;28;20000;-74
2022/07/07 11:32:36;;;;;;;;;;;37.10;55.80;;;;;;5053870;28;20364;-74
2022/07/07 11:35:05;;;;;;;;;;;37.10;56.80;;;;;;5053459;28;19904;-74
2022/07/07 11:37:34;;;;;;;;;;;37.30;56.50;;;;;;5054112;28;20378;-74
2022/07/07 11:40:00;;;;;;;;;;;37.50;56.10;;;;;;5053881;28;19905;-74
2022/07/07 11:42:33;;;;;;;;;;;37.60;56.50;;;;;;5053537;28;19966;-74
2022/07/07 11:44:59;;;;;;;;;;;37.40;57.40;;;;;;5053925;28;19908;-73
2022/07/07 11:47:25;;;;;;;;;;;37.10;58.20;;;;;;5053265;28;19912;-73
2022/07/07 11:49:53;;;;;;;;;;;37.20;58.60;;;;;;5053199;28;19905;-74
2022/07/07 11:52:21;;;;;;;;;;;37.20;59.60;;;;;;5052614;28;19962;-74
2022/07/07 11:54:48;;;;;;;;;;;37.10;61.00;;;;;;5052850;28;19950;-73
2022/07/07 11:57:33;;;;;;;;;;;36.70;62.80;;;;;;5052652;28;19905;-73
2022/07/07 12:00:09;;;;;;;;;;;36.60;63.90;;;;;;5052997;28;19909;-74
2022/07/07 12:02:35;;;;;;;;;;;36.60;65.20;;;;;;5052542;28;19917;-74
2022/07/07 12:05:01;;;;;;;;;;;36.70;65.70;;;;;;5052878;28;19909;-74
2022/07/07 12:07:26;;;;;;;;;;;36.50;65.40;;;;;;5052617;28;19916;-74
2022/07/07 12:09:52;;;;;;;;;;;36.20;66.90;;;;;;5052523;28;19905;-74
2022/07/07 12:12:18;;;;;;;;;;;36.10;66.50;;;;;;5090654;28;20014;-74
2022/07/07 12:14:44;;;;;;;;;;;36.00;68.40;;;;;;5093271;28;19908;-75
2022/07/07 12:17:10;;;;;;;;;;;36.00;70.40;;;;;;5092651;28;19904;-74
2022/07/07 12:19:46;;;;;;;;;;;36.00;70.80;;;;;;5093802;28;20324;-74
2022/07/07 12:22:12;;;;;;;;;;;36.00;66.90;;;;;;5093083;28;19963;-74
2022/07/07 12:24:37;;;;;;;;;;;35.90;64.50;;;;;;5093411;28;19969;-74
2022/07/07 12:27:03;;;;;;;;;;;36.00;63.90;;;;;;5093285;28;19994;-73
2022/07/07 12:29:29;;;;;;;;;;;36.00;63.60;;;;;;5093385;28;19907;-73
2022/07/07 12:31:55;;;;;;;;;;;35.90;64.00;;;;;;5093209;28;19912;-73
2022/07/07 12:34:24;;;;;;;;;;;36.10;64.80;;;;;;5095690;28;20344;-73
2022/07/07 12:36:50;;;;;;;;;;;36.20;65.10;;;;;;5097380;28;19966;-73
2022/07/07 12:39:16;;;;;;;;;;;36.10;65.20;;;;;;5097255;28;19937;-73
2022/07/07 12:41:42;;;;;;;;;;;36.30;63.20;;;;;;5097119;28;19937;-73
2022/07/07 12:44:11;;;;;;;;;;;36.20;62.30;;;;;;5095670;28;19911;-73
2022/07/07 12:46:37;;;;;;;;;;;36.30;62.20;;;;;;5095700;28;20301;-73
2022/07/07 12:49:04;;;;;;;;;;;36.30;62.60;;;;;;5096975;28;20002;-73
2022/07/07 12:51:30;;;;;;;;;;;36.40;62.60;;;;;;5096849;28;19904;-73
2022/07/07 12:53:56;;;;;;;;;;;36.40;61.10;;;;;;5096429;28;19916;-73
2022/07/07 12:56:29;;;;;;;;;;;36.70;61.00;;;;;;5096066;28;19930;-74
2022/07/07 12:58:55;;;;;;;;;;;36.50;61.60;;;;;;5096149;28;20352;-73
2022/07/07 13:01:23;;;;;;;;;;;36.50;61.90;;;;;;5095952;28;20013;-73
2022/07/07 13:03:51;;;;;;;;;;;36.50;61.70;;;;;;5096976;28;20247;-73
2022/07/07 13:06:18;;;;;;;;;;;36.40;62.50;;;;;;5095988;28;19904;-73
2022/07/07 13:08:44;;;;;;;;;;;36.50;63.40;;;;;;5096195;28;19971;-75
2022/07/07 13:11:10;;;;;;;;;;;36.50;62.90;;;;;;5094397;28;19916;-73
2022/07/07 13:13:36;;;;;;;;;;;36.50;61.80;;;;;;5095870;28;19994;-73
2022/07/07 13:16:02;;;;;;;;;;;36.30;55.90;;;;;;5095838;28;19954;-73
2022/07/07 13:18:27;;;;;;;;;;;36.50;52.90;;;;;;5096742;28;20340;-74
2022/07/07 13:20:54;;;;;;;;;;;36.50;51.50;;;;;;5094923;28;19931;-73
2022/07/07 13:23:22;;;;;;;;;;;36.70;51.10;;;;;;5096649;28;19911;-73
2022/07/07 13:25:48;;;;;;;;;;;36.90;51.00;;;;;;5096346;28;19907;-74
2022/07/07 13:28:15;;;;;;;;;;;37.00;50.30;;;;;;5096294;28;19904;-73
2022/07/07 13:30:41;;;;;;;;;;;37.10;50.20;;;;;;5096579;28;19904;-74
2022/07/07 13:33:07;;;;;;;;;;;37.30;50.50;;;;;;5096292;28;19927;-74
2022/07/07 13:35:34;;;;;;;;;;;37.40;49.50;;;;;;5096778;28;19911;-74
2022/07/07 13:37:59;;;;;;;;;;;37.60;46.90;;;;;;5096229;28;19914;-74
2022/07/07 13:40:25;;;;;;;;;;;37.60;46.30;;;;;;5096176;28;19904;-74
2022/07/07 13:42:51;;;;;;;;;;;37.70;46.10;;;;;;5096135;28;20385;-73
2022/07/07 13:45:17;;;;;;;;;;;37.60;46.70;;;;;;5095438;28;19911;-74
2022/07/07 13:47:43;;;;;;;;;;;37.50;46.80;;;;;;5094350;28;19908;-75
2022/07/07 13:50:08;;;;;;;;;;;37.40;47.50;;;;;;5096006;28;19969;-75
2022/07/07 13:52:34;;;;;;;;;;;37.50;47.80;;;;;;5096456;28;20359;-75
2022/07/07 13:55:00;;;;;;;;;;;37.70;47.10;;;;;;5096067;28;20006;-74
2022/07/07 13:57:31;;;;;;;;;;;37.80;47.70;;;;;;5095754;28;19910;-75
2022/07/07 13:59:57;;;;;;;;;;;38.00;48.30;;;;;;5095456;28;19911;-73
2022/07/07 14:02:24;;;;;;;;;;;38.00;49.50;;;;;;5094963;28;20395;-73
2022/07/07 14:04:50;;;;;;;;;;;37.90;50.00;;;;;;5093483;28;20283;-74
2022/07/07 14:07:16;;;;;;;;;;;37.90;50.20;;;;;;5094896;28;19912;-74
2022/07/07 14:09:42;;;;;;;;;;;38.00;51.30;;;;;;5095437;28;19904;-74
2022/07/07 14:12:08;;;;;;;;;;;37.90;51.60;;;;;;5093454;28;19923;-73
2022/07/07 14:14:34;;;;;;;;;;;37.90;52.40;;;;;;5094874;28;19904;-74
2022/07/07 14:17:00;;;;;;;;;;;37.80;53.10;;;;;;5094854;28;19904;-73
2022/07/07 14:19:26;;;;;;;;;;;37.90;53.80;;;;;;5094610;28;19904;-73